sensor_id;sensor_type;location;lat;lon;timestamp;temperature;humidity
2543;DHT22;1116;51.502;7.414;2023-11-18T00:00:20;3.50;99.90
2543;DHT22;1116;51.502;7.414;2023-11-18T00:02:50;3.50;99.90
2543;DHT22;1116;51.502;7.414;2023-11-18T00:05:23;3.60;99.90
2543;DHT22;1116;51.502;7.414;2023-11-18T00:07:53;2.80;99.90
2543;DHT22;1116;51.502;7.414;2023-11-18T00:10:23;3.50;99.90
2543;DHT22;1116;51.502;7.414;2023-11-18T00:12:53;3.60;99.90
2543;DHT22;1116;51.502;7.414;2023-11-18T00:15:23;3.50;99.90
2543;DHT22;1116;51.502;7.414;2023-11-18T00:17:53;3.60;99.90
2543;DHT22;1116;51.502;7.414;2023-11-18T00:20:25;3.60;99.90
2543;DHT22;1116;51.502;7.414;2023-11-18T00:22:58;3.50;99.90
2543;DHT22;1116;51.502;7.414;2023-11-18T00:25:31;3.60;99.90
2543;DHT22;1116;51.502;7.414;2023-11-18T00:28:03;3.50;99.90
2543;DHT22;1116;51.502;7.414;2023-11-18T00:30:34;3.60;99.90
2543;DHT22;1116;51.502;7.414;2023-11-18T00:33:07;3.60;99.90
2543;DHT22;1116;51.502;7.414;2023-11-18T00:35:39;3.50;99.90
2543;DHT22;1116;51.502;7.414;2023-11-18T00:38:10;4.20;99.90
2543;DHT22;1116;51.502;7.414;2023-11-18T00:40:40;3.50;99.90
2543;DHT22;1116;51.502;7.414;2023-11-18T00:43:10;3.90;99.90
2543;DHT22;1116;51.502;7.414;2023-11-18T00:45:40;3.80;99.90
2543;DHT22;1116;51.502;7.414;2023-11-18T00:48:10;3.50;99.90
2543;DHT22;1116;51.502;7.414;2023-11-18T00:50:44;3.50;99.90
2543;DHT22;1116;51.502;7.414;2023-11-18T00:53:14;3.50;99.90
2543;DHT22;1116;51.502;7.414;2023-11-18T00:55:44;3.50;99.90
2543;DHT22;1116;51.502;7.414;2023-11-18T00:58:14;3.40;99.90
2543;DHT22;1116;51.502;7.414;2023-11-18T01:00:43;3.40;99.90
2543;DHT22;1116;51.502;7.414;2023-11-18T01:03:13;3.30;99.90
2543;DHT22;1116;51.502;7.414;2023-11-18T01:05:46;3.30;99.90
2543;DHT22;1116;51.502;7.414;2023-11-18T01:08:16;3.30;99.90
2543;DHT22;1116;51.502;7.414;2023-11-18T01:10:47;3.30;99.90
2543;DHT22;1116;51.502;7.414;2023-11-18T01:13:16;3.30;99.90
2543;DHT22;1116;51.502;7.414;2023-11-18T01:15:46;3.30;99.90
2543;DHT22;1116;51.502;7.414;2023-11-18T01:18:17;3.30;99.90
2543;DHT22;1116;51.502;7.414;2023-11-18T01:20:50;3.40;99.90
2543;DHT22;1116;51.502;7.414;2023-11-18T01:23:20;3.40;99.90
2543;DHT22;1116;51.502;7.414;2023-11-18T01:25:51;3.50;99.90
2543;DHT22;1116;51.502;7.414;2023-11-18T01:28:23;3.40;99.90
2543;DHT22;1116;51.502;7.414;2023-11-18T01:30:53;3.50;99.90
2543;DHT22;1116;51.502;7.414;2023-11-18T01:33:23;3.60;99.90
2543;DHT22;1116;51.502;7.414;2023-11-18T01:35:56;3.60;99.90
2543;DHT22;1116;51.502;7.414;2023-11-18T01:38:26;3.60;99.90
2543;DHT22;1116;51.502;7.414;2023-11-18T01:40:56;3.60;99.90
2543;DHT22;1116;51.502;7.414;2023-11-18T01:43:27;3.70;99.90
2543;DHT22;1116;51.502;7.414;2023-11-18T01:45:59;3.80;99.90
2543;DHT22;1116;51.502;7.414;2023-11-18T01:48:31;3.80;99.90
2543;DHT22;1116;51.502;7.414;2023-11-18T01:51:07;3.80;99.90
2543;DHT22;1116;51.502;7.414;2023-11-18T01:53:40;3.80;99.90
2543;DHT22;1116;51.502;7.414;2023-11-18T01:56:12;3.90;99.90
2543;DHT22;1116;51.502;7.414;2023-11-18T01:58:42;3.90;99.90
2543;DHT22;1116;51.502;7.414;2023-11-18T02:01:11;4.00;99.90
2543;DHT22;1116;51.502;7.414;2023-11-18T02:03:44;3.80;99.90
2543;DHT22;1116;51.502;7.414;2023-11-18T02:06:17;4.00;99.90
2543;DHT22;1116;51.502;7.414;2023-11-18T02:08:48;4.00;99.90
2543;DHT22;1116;51.502;7.414;2023-11-18T02:11:23;3.90;99.90
2543;DHT22;1116;51.502;7.414;2023-11-18T02:14:00;3.90;99.90
2543;DHT22;1116;51.502;7.414;2023-11-18T02:16:32;3.80;99.90
2543;DHT22;1116;51.502;7.414;2023-11-18T02:19:03;3.80;99.90
2543;DHT22;1116;51.502;7.414;2023-11-18T02:21:40;3.80;99.90
2543;DHT22;1116;51.502;7.414;2023-11-18T02:24:10;3.80;99.90
2543;DHT22;1116;51.502;7.414;2023-11-18T02:26:43;3.70;99.90
2543;DHT22;1116;51.502;7.414;2023-11-18T02:29:13;3.70;99.90
2543;DHT22;1116;51.502;7.414;2023-11-18T02:31:44;3.70;99.90
2543;DHT22;1116;51.502;7.414;2023-11-18T02:34:21;3.60;99.90
2543;DHT22;1116;51.502;7.414;2023-11-18T02:36:55;3.50;99.90
2543;DHT22;1116;51.502;7.414;2023-11-18T02:39:33;3.30;99.90
2543;DHT22;1116;51.502;7.414;2023-11-18T02:42:09;3.20;99.90
2543;DHT22;1116;51.502;7.414;2023-11-18T02:44:40;3.30;99.90
2543;DHT22;1116;51.502;7.414;2023-11-18T02:47:11;3.30;99.90
2543;DHT22;1116;51.502;7.414;2023-11-18T02:49:43;3.40;99.90
2543;DHT22;1116;51.502;7.414;2023-11-18T02:52:15;3.40;99.90
2543;DHT22;1116;51.502;7.414;2023-11-18T02:54:46;3.50;99.90
2543;DHT22;1116;51.502;7.414;2023-11-18T02:57:18;3.50;99.90
2543;DHT22;1116;51.502;7.414;2023-11-18T02:59:48;3.60;99.90
2543;DHT22;1116;51.502;7.414;2023-11-18T03:02:18;3.60;99.90
2543;DHT22;1116;51.502;7.414;2023-11-18T03:04:48;3.60;99.90
2543;DHT22;1116;51.502;7.414;2023-11-18T03:07:18;3.70;99.90
2543;DHT22;1116;51.502;7.414;2023-11-18T03:09:48;3.80;99.90
2543;DHT22;1116;51.502;7.414;2023-11-18T03:12:20;3.90;99.90
2543;DHT22;1116;51.502;7.414;2023-11-18T03:14:55;4.10;99.90
2543;DHT22;1116;51.502;7.414;2023-11-18T03:17:25;4.10;99.90
2543;DHT22;1116;51.502;7.414;2023-11-18T03:19:55;4.10;99.90
2543;DHT22;1116;51.502;7.414;2023-11-18T03:22:25;4.20;99.90
2543;DHT22;1116;51.502;7.414;2023-11-18T03:24:55;4.20;99.90
2543;DHT22;1116;51.502;7.414;2023-11-18T03:27:27;4.20;99.90
2543;DHT22;1116;51.502;7.414;2023-11-18T03:29:57;4.20;99.90
2543;DHT22;1116;51.502;7.414;2023-11-18T03:32:27;4.20;99.90
2543;DHT22;1116;51.502;7.414;2023-11-18T03:34:58;4.10;99.90
2543;DHT22;1116;51.502;7.414;2023-11-18T03:37:28;4.10;99.90
2543;DHT22;1116;51.502;7.414;2023-11-18T03:39:58;4.10;99.90
2543;DHT22;1116;51.502;7.414;2023-11-18T03:42:31;4.10;99.90
2543;DHT22;1116;51.502;7.414;2023-11-18T03:45:02;4.10;99.90
2543;DHT22;1116;51.502;7.414;2023-11-18T03:47:32;4.10;99.90
2543;DHT22;1116;51.502;7.414;2023-11-18T03:50:04;4.20;99.90
2543;DHT22;1116;51.502;7.414;2023-11-18T03:52:36;4.20;99.90
2543;DHT22;1116;51.502;7.414;2023-11-18T03:55:07;4.20;99.90
2543;DHT22;1116;51.502;7.414;2023-11-18T03:57:40;4.20;99.90
2543;DHT22;1116;51.502;7.414;2023-11-18T04:00:15;4.30;99.90
2543;DHT22;1116;51.502;7.414;2023-11-18T04:02:46;4.20;99.90
2543;DHT22;1116;51.502;7.414;2023-11-18T04:05:16;4.20;99.90
2543;DHT22;1116;51.502;7.414;2023-11-18T04:07:46;4.30;99.90
2543;DHT22;1116;51.502;7.414;2023-11-18T04:10:16;4.30;99.90
2543;DHT22;1116;51.502;7.414;2023-11-18T04:12:50;4.30;99.90
2543;DHT22;1116;51.502;7.414;2023-11-18T04:15:19;4.20;99.90
2543;DHT22;1116;51.502;7.414;2023-11-18T04:17:49;4.20;99.90
2543;DHT22;1116;51.502;7.414;2023-11-18T04:20:19;4.30;99.90
2543;DHT22;1116;51.502;7.414;2023-11-18T04:22:50;4.30;99.90
2543;DHT22;1116;51.502;7.414;2023-11-18T04:25:21;4.30;99.90
2543;DHT22;1116;51.502;7.414;2023-11-18T04:27:54;4.40;99.90
2543;DHT22;1116;51.502;7.414;2023-11-18T04:30:24;4.40;99.90
2543;DHT22;1116;51.502;7.414;2023-11-18T04:32:54;4.40;99.90
2543;DHT22;1116;51.502;7.414;2023-11-18T04:35:25;4.40;99.90
2543;DHT22;1116;51.502;7.414;2023-11-18T04:37:54;4.40;99.90
2543;DHT22;1116;51.502;7.414;2023-11-18T04:40:24;4.30;99.90
2543;DHT22;1116;51.502;7.414;2023-11-18T04:42:57;4.30;99.90
2543;DHT22;1116;51.502;7.414;2023-11-18T04:45:27;4.30;99.90
2543;DHT22;1116;51.502;7.414;2023-11-18T04:47:57;4.30;99.90
2543;DHT22;1116;51.502;7.414;2023-11-18T04:50:28;4.30;99.90
2543;DHT22;1116;51.502;7.414;2023-11-18T04:52:59;4.20;99.90
2543;DHT22;1116;51.502;7.414;2023-11-18T04:55:29;4.20;99.90
2543;DHT22;1116;51.502;7.414;2023-11-18T04:58:02;4.20;99.90
2543;DHT22;1116;51.502;7.414;2023-11-18T05:00:32;4.20;99.90
2543;DHT22;1116;51.502;7.414;2023-11-18T05:03:04;4.20;99.90
2543;DHT22;1116;51.502;7.414;2023-11-18T05:05:36;4.20;99.90
2543;DHT22;1116;51.502;7.414;2023-11-18T05:08:14;4.20;99.90
2543;DHT22;1116;51.502;7.414;2023-11-18T05:10:47;4.20;99.90
2543;DHT22;1116;51.502;7.414;2023-11-18T05:13:20;4.20;99.90
2543;DHT22;1116;51.502;7.414;2023-11-18T05:15:50;4.30;99.90
2543;DHT22;1116;51.502;7.414;2023-11-18T05:18:21;4.30;99.90
2543;DHT22;1116;51.502;7.414;2023-11-18T05:20:51;4.30;99.90
2543;DHT22;1116;51.502;7.414;2023-11-18T05:23:21;4.40;99.90
2543;DHT22;1116;51.502;7.414;2023-11-18T05:25:51;4.40;99.90
2543;DHT22;1116;51.502;7.414;2023-11-18T05:28:25;4.30;99.90
2543;DHT22;1116;51.502;7.414;2023-11-18T05:30:57;4.30;99.90
2543;DHT22;1116;51.502;7.414;2023-11-18T05:33:28;4.30;99.90
2543;DHT22;1116;51.502;7.414;2023-11-18T05:36:01;4.30;99.90
2543;DHT22;1116;51.502;7.414;2023-11-18T05:38:32;4.40;99.90
2543;DHT22;1116;51.502;7.414;2023-11-18T05:41:03;4.40;99.90
2543;DHT22;1116;51.502;7.414;2023-11-18T05:43:46;4.40;99.90
2543;DHT22;1116;51.502;7.414;2023-11-18T05:46:18;4.30;99.90
2543;DHT22;1116;51.502;7.414;2023-11-18T05:48:52;4.30;99.90
2543;DHT22;1116;51.502;7.414;2023-11-18T05:51:23;4.30;99.90
2543;DHT22;1116;51.502;7.414;2023-11-18T05:53:55;4.30;99.90
2543;DHT22;1116;51.502;7.414;2023-11-18T05:56:25;4.30;99.90
2543;DHT22;1116;51.502;7.414;2023-11-18T05:58:58;4.40;99.90
2543;DHT22;1116;51.502;7.414;2023-11-18T06:01:30;4.40;99.90
2543;DHT22;1116;51.502;7.414;2023-11-18T06:04:00;4.40;99.90
2543;DHT22;1116;51.502;7.414;2023-11-18T06:06:30;4.40;99.90
2543;DHT22;1116;51.502;7.414;2023-11-18T06:09:00;4.40;99.90
2543;DHT22;1116;51.502;7.414;2023-11-18T06:11:35;4.50;99.90
2543;DHT22;1116;51.502;7.414;2023-11-18T06:14:11;4.50;99.90
2543;DHT22;1116;51.502;7.414;2023-11-18T06:16:41;4.50;99.90
2543;DHT22;1116;51.502;7.414;2023-11-18T06:19:11;4.50;99.90
2543;DHT22;1116;51.502;7.414;2023-11-18T06:21:41;5.30;99.90
2543;DHT22;1116;51.502;7.414;2023-11-18T06:24:11;4.60;99.90
2543;DHT22;1116;51.502;7.414;2023-11-18T06:26:41;4.50;99.90
2543;DHT22;1116;51.502;7.414;2023-11-18T06:29:14;4.60;99.90
2543;DHT22;1116;51.502;7.414;2023-11-18T06:31:44;4.50;99.90
2543;DHT22;1116;51.502;7.414;2023-11-18T06:34:15;4.50;99.90
2543;DHT22;1116;51.502;7.414;2023-11-18T06:36:47;3.70;99.90
2543;DHT22;1116;51.502;7.414;2023-11-18T06:39:17;4.60;99.90
2543;DHT22;1116;51.502;7.414;2023-11-18T06:41:48;4.70;99.90
2543;DHT22;1116;51.502;7.414;2023-11-18T06:44:21;4.80;99.90
2543;DHT22;1116;51.502;7.414;2023-11-18T06:46:51;4.80;99.90
2543;DHT22;1116;51.502;7.414;2023-11-18T06:49:21;4.80;99.90
2543;DHT22;1116;51.502;7.414;2023-11-18T06:51:52;4.80;99.90
2543;DHT22;1116;51.502;7.414;2023-11-18T06:54:22;4.90;99.90
2543;DHT22;1116;51.502;7.414;2023-11-18T06:56:54;4.90;99.90
2543;DHT22;1116;51.502;7.414;2023-11-18T06:59:26;5.00;99.90
2543;DHT22;1116;51.502;7.414;2023-11-18T07:01:56;5.10;99.90
2543;DHT22;1116;51.502;7.414;2023-11-18T07:04:26;5.20;99.90
2543;DHT22;1116;51.502;7.414;2023-11-18T07:06:56;5.30;99.90
2543;DHT22;1116;51.502;7.414;2023-11-18T07:09:26;5.30;99.90
2543;DHT22;1116;51.502;7.414;2023-11-18T07:11:56;5.40;99.90
2543;DHT22;1116;51.502;7.414;2023-11-18T07:14:28;5.40;99.90
2543;DHT22;1116;51.502;7.414;2023-11-18T07:16:58;5.50;99.90
2543;DHT22;1116;51.502;7.414;2023-11-18T07:19:28;5.50;99.90
2543;DHT22;1116;51.502;7.414;2023-11-18T07:22:00;5.60;99.90
2543;DHT22;1116;51.502;7.414;2023-11-18T07:24:33;5.10;99.90
2543;DHT22;1116;51.502;7.414;2023-11-18T07:27:04;5.60;99.90
2543;DHT22;1116;51.502;7.414;2023-11-18T07:29:40;5.70;99.90
2543;DHT22;1116;51.502;7.414;2023-11-18T07:32:12;5.70;99.90
2543;DHT22;1116;51.502;7.414;2023-11-18T07:34:47;5.70;99.90
2543;DHT22;1116;51.502;7.414;2023-11-18T07:37:23;5.70;99.90
2543;DHT22;1116;51.502;7.414;2023-11-18T07:39:54;5.80;99.90
2543;DHT22;1116;51.502;7.414;2023-11-18T07:42:27;5.90;99.90
2543;DHT22;1116;51.502;7.414;2023-11-18T07:45:00;5.90;99.90
2543;DHT22;1116;51.502;7.414;2023-11-18T07:47:31;5.90;99.90
2543;DHT22;1116;51.502;7.414;2023-11-18T07:50:01;6.00;99.90
2543;DHT22;1116;51.502;7.414;2023-11-18T07:52:34;6.00;99.90
2543;DHT22;1116;51.502;7.414;2023-11-18T07:55:05;6.10;99.90
2543;DHT22;1116;51.502;7.414;2023-11-18T07:57:36;6.20;99.90
2543;DHT22;1116;51.502;7.414;2023-11-18T08:00:22;6.10;99.90
2543;DHT22;1116;51.502;7.414;2023-11-18T08:02:55;6.20;99.90
2543;DHT22;1116;51.502;7.414;2023-11-18T08:05:27;6.20;99.90
2543;DHT22;1116;51.502;7.414;2023-11-18T08:08:02;6.30;99.90
2543;DHT22;1116;51.502;7.414;2023-11-18T08:10:38;6.40;99.90
2543;DHT22;1116;51.502;7.414;2023-11-18T08:13:14;6.40;99.90
2543;DHT22;1116;51.502;7.414;2023-11-18T08:15:48;6.40;99.90
2543;DHT22;1116;51.502;7.414;2023-11-18T08:18:19;6.40;99.90
2543;DHT22;1116;51.502;7.414;2023-11-18T08:20:50;6.40;99.90
2543;DHT22;1116;51.502;7.414;2023-11-18T08:23:20;6.50;99.90
2543;DHT22;1116;51.502;7.414;2023-11-18T08:25:50;6.50;99.90
2543;DHT22;1116;51.502;7.414;2023-11-18T08:28:21;6.60;99.90
2543;DHT22;1116;51.502;7.414;2023-11-18T08:30:54;6.60;99.90
2543;DHT22;1116;51.502;7.414;2023-11-18T08:33:23;6.70;99.90
2543;DHT22;1116;51.502;7.414;2023-11-18T08:35:56;6.80;99.90
2543;DHT22;1116;51.502;7.414;2023-11-18T08:38:27;6.80;99.90
2543;DHT22;1116;51.502;7.414;2023-11-18T08:40:57;6.70;99.90
2543;DHT22;1116;51.502;7.414;2023-11-18T08:43:27;6.60;99.90
2543;DHT22;1116;51.502;7.414;2023-11-18T08:46:00;6.70;99.90
2543;DHT22;1116;51.502;7.414;2023-11-18T08:48:30;6.70;99.90
2543;DHT22;1116;51.502;7.414;2023-11-18T08:51:01;6.80;99.90
2543;DHT22;1116;51.502;7.414;2023-11-18T08:53:37;6.80;99.90
2543;DHT22;1116;51.502;7.414;2023-11-18T08:56:08;6.80;99.90
2543;DHT22;1116;51.502;7.414;2023-11-18T08:58:42;6.90;99.90
2543;DHT22;1116;51.502;7.414;2023-11-18T09:01:15;6.90;99.90
2543;DHT22;1116;51.502;7.414;2023-11-18T09:03:44;6.90;99.90
2543;DHT22;1116;51.502;7.414;2023-11-18T09:06:20;6.90;99.90
2543;DHT22;1116;51.502;7.414;2023-11-18T09:08:53;6.90;99.90
2543;DHT22;1116;51.502;7.414;2023-11-18T09:11:25;6.90;99.90
2543;DHT22;1116;51.502;7.414;2023-11-18T09:14:00;7.40;99.90
2543;DHT22;1116;51.502;7.414;2023-11-18T09:16:34;6.90;99.90
2543;DHT22;1116;51.502;7.414;2023-11-18T09:19:06;6.90;99.90
2543;DHT22;1116;51.502;7.414;2023-11-18T09:21:37;6.90;99.90
2543;DHT22;1116;51.502;7.414;2023-11-18T09:24:08;6.90;99.90
2543;DHT22;1116;51.502;7.414;2023-11-18T09:26:40;7.00;99.90
2543;DHT22;1116;51.502;7.414;2023-11-18T09:29:14;7.10;99.90
2543;DHT22;1116;51.502;7.414;2023-11-18T09:31:48;7.10;99.90
2543;DHT22;1116;51.502;7.414;2023-11-18T09:34:19;7.10;99.90
2543;DHT22;1116;51.502;7.414;2023-11-18T09:36:54;7.10;99.90
2543;DHT22;1116;51.502;7.414;2023-11-18T09:39:25;7.20;99.90
2543;DHT22;1116;51.502;7.414;2023-11-18T09:42:13;7.20;99.90
2543;DHT22;1116;51.502;7.414;2023-11-18T09:44:47;7.20;99.90
2543;DHT22;1116;51.502;7.414;2023-11-18T09:47:21;7.20;99.90
2543;DHT22;1116;51.502;7.414;2023-11-18T09:49:55;7.30;99.90
2543;DHT22;1116;51.502;7.414;2023-11-18T09:52:26;7.30;99.90
2543;DHT22;1116;51.502;7.414;2023-11-18T09:55:02;7.30;99.90
2543;DHT22;1116;51.502;7.414;2023-11-18T09:57:44;7.40;99.90
2543;DHT22;1116;51.502;7.414;2023-11-18T10:00:16;7.50;99.90
2543;DHT22;1116;51.502;7.414;2023-11-18T10:02:56;7.50;99.90
2543;DHT22;1116;51.502;7.414;2023-11-18T10:05:29;7.60;99.90
2543;DHT22;1116;51.502;7.414;2023-11-18T10:08:00;7.50;99.90
2543;DHT22;1116;51.502;7.414;2023-11-18T10:10:33;7.50;99.90
2543;DHT22;1116;51.502;7.414;2023-11-18T10:13:12;7.50;99.90
2543;DHT22;1116;51.502;7.414;2023-11-18T10:15:50;7.50;99.90
2543;DHT22;1116;51.502;7.414;2023-11-18T10:18:24;7.50;99.90
2543;DHT22;1116;51.502;7.414;2023-11-18T10:20:56;7.50;99.90
2543;DHT22;1116;51.502;7.414;2023-11-18T10:23:26;7.40;99.90
2543;DHT22;1116;51.502;7.414;2023-11-18T10:26:00;7.50;99.90
2543;DHT22;1116;51.502;7.414;2023-11-18T10:28:33;7.50;99.90
2543;DHT22;1116;51.502;7.414;2023-11-18T10:31:06;7.60;99.90
2543;DHT22;1116;51.502;7.414;2023-11-18T10:33:40;7.60;99.90
2543;DHT22;1116;51.502;7.414;2023-11-18T10:36:18;7.70;99.90
2543;DHT22;1116;51.502;7.414;2023-11-18T10:38:50;7.70;99.90
2543;DHT22;1116;51.502;7.414;2023-11-18T10:41:23;7.70;99.90
2543;DHT22;1116;51.502;7.414;2023-11-18T10:44:05;7.80;99.90
2543;DHT22;1116;51.502;7.414;2023-11-18T10:46:50;7.80;99.90
2543;DHT22;1116;51.502;7.414;2023-11-18T10:49:24;7.80;99.90
2543;DHT22;1116;51.502;7.414;2023-11-18T10:51:55;7.80;99.90
2543;DHT22;1116;51.502;7.414;2023-11-18T10:54:30;7.80;99.90
2543;DHT22;1116;51.502;7.414;2023-11-18T10:57:01;8.00;99.90
2543;DHT22;1116;51.502;7.414;2023-11-18T10:59:35;8.00;99.90
2543;DHT22;1116;51.502;7.414;2023-11-18T11:02:19;8.00;99.90
2543;DHT22;1116;51.502;7.414;2023-11-18T11:04:56;8.10;99.90
2543;DHT22;1116;51.502;7.414;2023-11-18T11:07:28;8.10;99.90
2543;DHT22;1116;51.502;7.414;2023-11-18T11:09:59;8.10;99.90
2543;DHT22;1116;51.502;7.414;2023-11-18T11:12:41;8.30;99.90
2543;DHT22;1116;51.502;7.414;2023-11-18T11:15:23;8.20;99.90
2543;DHT22;1116;51.502;7.414;2023-11-18T11:17:58;8.70;99.90
2543;DHT22;1116;51.502;7.414;2023-11-18T11:20:41;8.30;99.90
2543;DHT22;1116;51.502;7.414;2023-11-18T11:23:20;8.50;99.90
2543;DHT22;1116;51.502;7.414;2023-11-18T11:26:01;8.30;99.90
2543;DHT22;1116;51.502;7.414;2023-11-18T11:28:44;8.40;99.90
2543;DHT22;1116;51.502;7.414;2023-11-18T11:31:21;8.30;99.90
2543;DHT22;1116;51.502;7.414;2023-11-18T11:33:59;8.40;99.90
2543;DHT22;1116;51.502;7.414;2023-11-18T11:36:37;8.40;99.90
2543;DHT22;1116;51.502;7.414;2023-11-18T11:39:13;8.40;99.90
2543;DHT22;1116;51.502;7.414;2023-11-18T11:41:51;8.50;99.90
2543;DHT22;1116;51.502;7.414;2023-11-18T11:44:24;8.50;99.90
2543;DHT22;1116;51.502;7.414;2023-11-18T11:46:59;8.50;99.90
2543;DHT22;1116;51.502;7.414;2023-11-18T11:49:36;8.50;99.90
2543;DHT22;1116;51.502;7.414;2023-11-18T11:52:19;8.50;99.90
2543;DHT22;1116;51.502;7.414;2023-11-18T11:55:00;8.50;99.90
2543;DHT22;1116;51.502;7.414;2023-11-18T11:57:33;8.50;99.90
2543;DHT22;1116;51.502;7.414;2023-11-18T12:00:10;8.50;99.90
2543;DHT22;1116;51.502;7.414;2023-11-18T12:02:51;8.50;99.90
2543;DHT22;1116;51.502;7.414;2023-11-18T12:05:24;8.50;99.90
2543;DHT22;1116;51.502;7.414;2023-11-18T12:07:58;8.50;99.90
2543;DHT22;1116;51.502;7.414;2023-11-18T12:10:30;8.60;99.90
2543;DHT22;1116;51.502;7.414;2023-11-18T12:13:09;8.60;99.90
2543;DHT22;1116;51.502;7.414;2023-11-18T12:15:51;8.70;99.90
2543;DHT22;1116;51.502;7.414;2023-11-18T12:18:25;8.70;99.90
2543;DHT22;1116;51.502;7.414;2023-11-18T12:20:55;8.70;99.90
2543;DHT22;1116;51.502;7.414;2023-11-18T12:23:31;8.60;99.90
2543;DHT22;1116;51.502;7.414;2023-11-18T12:26:37;8.60;99.90
2543;DHT22;1116;51.502;7.414;2023-11-18T12:29:31;8.60;99.90
2543;DHT22;1116;51.502;7.414;2023-11-18T12:32:01;8.60;99.90
2543;DHT22;1116;51.502;7.414;2023-11-18T12:34:50;8.60;99.90
2543;DHT22;1116;51.502;7.414;2023-11-18T12:37:40;8.60;99.90
2543;DHT22;1116;51.502;7.414;2023-11-18T12:40:46;8.60;99.90
2543;DHT22;1116;51.502;7.414;2023-11-18T12:43:46;8.50;99.90
2543;DHT22;1116;51.502;7.414;2023-11-18T12:46:49;8.90;99.90
2543;DHT22;1116;51.502;7.414;2023-11-18T12:49:21;8.50;99.90
2543;DHT22;1116;51.502;7.414;2023-11-18T12:51:54;8.50;99.90
2543;DHT22;1116;51.502;7.414;2023-11-18T12:54:26;8.40;99.90
2543;DHT22;1116;51.502;7.414;2023-11-18T12:57:01;8.40;99.90
2543;DHT22;1116;51.502;7.414;2023-11-18T12:59:33;8.30;99.90
2543;DHT22;1116;51.502;7.414;2023-11-18T13:02:07;8.30;99.90
2543;DHT22;1116;51.502;7.414;2023-11-18T13:04:40;8.30;99.90
2543;DHT22;1116;51.502;7.414;2023-11-18T13:07:15;8.40;99.90
2543;DHT22;1116;51.502;7.414;2023-11-18T13:09:46;8.40;99.90
2543;DHT22;1116;51.502;7.414;2023-11-18T13:12:19;8.50;99.90
2543;DHT22;1116;51.502;7.414;2023-11-18T13:14:51;8.40;99.90
2543;DHT22;1116;51.502;7.414;2023-11-18T13:17:24;8.40;99.90
2543;DHT22;1116;51.502;7.414;2023-11-18T13:19:55;8.40;99.90
2543;DHT22;1116;51.502;7.414;2023-11-18T13:22:29;8.50;99.90
2543;DHT22;1116;51.502;7.414;2023-11-18T13:25:13;8.40;99.90
2543;DHT22;1116;51.502;7.414;2023-11-18T13:27:47;8.40;99.90
2543;DHT22;1116;51.502;7.414;2023-11-18T13:30:21;8.40;99.90
2543;DHT22;1116;51.502;7.414;2023-11-18T13:32:51;8.40;99.90
2543;DHT22;1116;51.502;7.414;2023-11-18T13:35:21;8.30;99.90
2543;DHT22;1116;51.502;7.414;2023-11-18T13:37:51;8.40;99.90
2543;DHT22;1116;51.502;7.414;2023-11-18T13:40:23;8.30;99.90
2543;DHT22;1116;51.502;7.414;2023-11-18T13:43:05;8.30;99.90
2543;DHT22;1116;51.502;7.414;2023-11-18T13:45:36;8.40;99.90
2543;DHT22;1116;51.502;7.414;2023-11-18T13:48:06;8.30;99.90
2543;DHT22;1116;51.502;7.414;2023-11-18T13:50:36;8.30;99.90
2543;DHT22;1116;51.502;7.414;2023-11-18T13:53:06;8.30;99.90
2543;DHT22;1116;51.502;7.414;2023-11-18T13:55:38;8.20;99.90
2543;DHT22;1116;51.502;7.414;2023-11-18T13:58:10;8.20;99.90
2543;DHT22;1116;51.502;7.414;2023-11-18T14:00:41;8.20;99.90
2543;DHT22;1116;51.502;7.414;2023-11-18T14:03:10;8.20;99.90
2543;DHT22;1116;51.502;7.414;2023-11-18T14:05:43;8.20;99.90
2543;DHT22;1116;51.502;7.414;2023-11-18T14:08:17;8.20;99.90
2543;DHT22;1116;51.502;7.414;2023-11-18T14:10:47;8.30;99.90
2543;DHT22;1116;51.502;7.414;2023-11-18T14:13:32;8.20;99.90
2543;DHT22;1116;51.502;7.414;2023-11-18T14:16:02;8.20;99.90
2543;DHT22;1116;51.502;7.414;2023-11-18T14:18:38;8.30;99.90
2543;DHT22;1116;51.502;7.414;2023-11-18T14:21:09;8.30;99.90
2543;DHT22;1116;51.502;7.414;2023-11-18T14:23:41;8.20;99.90
2543;DHT22;1116;51.502;7.414;2023-11-18T14:26:11;8.20;99.90
2543;DHT22;1116;51.502;7.414;2023-11-18T14:28:46;8.20;99.90
2543;DHT22;1116;51.502;7.414;2023-11-18T14:31:17;8.20;99.90
2543;DHT22;1116;51.502;7.414;2023-11-18T14:33:49;8.30;99.90
2543;DHT22;1116;51.502;7.414;2023-11-18T14:36:19;8.60;99.90
2543;DHT22;1116;51.502;7.414;2023-11-18T14:38:49;8.40;99.90
2543;DHT22;1116;51.502;7.414;2023-11-18T14:41:26;8.40;99.90
2543;DHT22;1116;51.502;7.414;2023-11-18T14:44:00;8.40;99.90
2543;DHT22;1116;51.502;7.414;2023-11-18T14:46:31;8.30;99.90
2543;DHT22;1116;51.502;7.414;2023-11-18T14:49:04;8.40;99.90
2543;DHT22;1116;51.502;7.414;2023-11-18T14:51:37;8.50;99.90
2543;DHT22;1116;51.502;7.414;2023-11-18T14:54:07;8.50;99.90
2543;DHT22;1116;51.502;7.414;2023-11-18T14:56:37;8.50;99.90
2543;DHT22;1116;51.502;7.414;2023-11-18T14:59:11;8.50;99.90
2543;DHT22;1116;51.502;7.414;2023-11-18T15:01:42;8.50;99.90
2543;DHT22;1116;51.502;7.414;2023-11-18T15:04:15;8.50;99.90
2543;DHT22;1116;51.502;7.414;2023-11-18T15:06:45;8.40;99.90
2543;DHT22;1116;51.502;7.414;2023-11-18T15:09:19;8.40;99.90
2543;DHT22;1116;51.502;7.414;2023-11-18T15:11:51;8.40;99.90
2543;DHT22;1116;51.502;7.414;2023-11-18T15:14:24;8.40;99.90
2543;DHT22;1116;51.502;7.414;2023-11-18T15:16:55;8.40;99.90
2543;DHT22;1116;51.502;7.414;2023-11-18T15:19:25;8.40;99.90
2543;DHT22;1116;51.502;7.414;2023-11-18T15:21:57;8.30;99.90
2543;DHT22;1116;51.502;7.414;2023-11-18T15:24:28;8.30;99.90
2543;DHT22;1116;51.502;7.414;2023-11-18T15:27:00;8.20;99.90
2543;DHT22;1116;51.502;7.414;2023-11-18T15:29:33;8.20;99.90
2543;DHT22;1116;51.502;7.414;2023-11-18T15:32:06;8.10;99.90
2543;DHT22;1116;51.502;7.414;2023-11-18T15:34:36;8.20;99.90
2543;DHT22;1116;51.502;7.414;2023-11-18T15:37:06;8.20;99.90
2543;DHT22;1116;51.502;7.414;2023-11-18T15:39:36;8.20;99.90
2543;DHT22;1116;51.502;7.414;2023-11-18T15:42:06;8.00;99.90
2543;DHT22;1116;51.502;7.414;2023-11-18T15:44:39;8.10;99.90
2543;DHT22;1116;51.502;7.414;2023-11-18T15:47:09;8.20;99.90
2543;DHT22;1116;51.502;7.414;2023-11-18T15:49:40;8.20;99.90
2543;DHT22;1116;51.502;7.414;2023-11-18T15:52:10;8.20;99.90
2543;DHT22;1116;51.502;7.414;2023-11-18T15:54:44;8.50;99.90
2543;DHT22;1116;51.502;7.414;2023-11-18T15:57:14;8.20;99.90
2543;DHT22;1116;51.502;7.414;2023-11-18T15:59:47;8.20;99.90
2543;DHT22;1116;51.502;7.414;2023-11-18T16:02:20;8.10;99.90
2543;DHT22;1116;51.502;7.414;2023-11-18T16:04:50;8.20;99.90
2543;DHT22;1116;51.502;7.414;2023-11-18T16:07:22;8.20;99.90
2543;DHT22;1116;51.502;7.414;2023-11-18T16:09:52;8.20;99.90
2543;DHT22;1116;51.502;7.414;2023-11-18T16:12:22;8.20;99.90
2543;DHT22;1116;51.502;7.414;2023-11-18T16:14:55;8.20;99.90
2543;DHT22;1116;51.502;7.414;2023-11-18T16:17:26;8.20;99.90
2543;DHT22;1116;51.502;7.414;2023-11-18T16:19:56;8.20;99.90
2543;DHT22;1116;51.502;7.414;2023-11-18T16:22:26;8.30;99.90
2543;DHT22;1116;51.502;7.414;2023-11-18T16:24:56;8.30;99.90
2543;DHT22;1116;51.502;7.414;2023-11-18T16:27:26;8.20;99.90
2543;DHT22;1116;51.502;7.414;2023-11-18T16:29:58;8.20;99.90
2543;DHT22;1116;51.502;7.414;2023-11-18T16:32:29;8.30;99.90
2543;DHT22;1116;51.502;7.414;2023-11-18T16:35:00;8.30;99.90
2543;DHT22;1116;51.502;7.414;2023-11-18T16:37:30;8.30;99.90
2543;DHT22;1116;51.502;7.414;2023-11-18T16:40:00;8.30;99.90
2543;DHT22;1116;51.502;7.414;2023-11-18T16:42:30;8.30;99.90
2543;DHT22;1116;51.502;7.414;2023-11-18T16:45:03;8.30;99.90
2543;DHT22;1116;51.502;7.414;2023-11-18T16:47:36;8.30;99.90
2543;DHT22;1116;51.502;7.414;2023-11-18T16:50:06;8.30;99.90
2543;DHT22;1116;51.502;7.414;2023-11-18T16:52:38;8.20;99.90